createdAt,value
2024-03-02T00:00:52.892Z,60.80
2024-03-02T00:03:21.573Z,57.30
2024-03-02T00:05:53.277Z,62.13
2024-03-02T00:08:27.140Z,59.58
2024-03-02T00:10:59.145Z,60.90
2024-03-02T00:13:27.210Z,56.72
2024-03-02T00:15:56.591Z,55.58
2024-03-02T00:18:29.040Z,56.65
2024-03-02T00:21:00.777Z,60.42
2024-03-02T00:23:37.301Z,61.85
2024-03-02T00:26:05.817Z,61.95
2024-03-02T00:28:36.195Z,61.53
2024-03-02T00:31:13.360Z,54.13
2024-03-02T00:33:46.229Z,58.40
2024-03-02T00:36:15.925Z,58.80
2024-03-02T00:38:48.746Z,60.08
2024-03-02T00:41:24.410Z,54.00
2024-03-02T00:43:59.765Z,57.50
2024-03-02T00:46:27.550Z,61.78
2024-03-02T00:48:56.791Z,58.88
2024-03-02T00:51:25.845Z,56.55
2024-03-02T00:53:57.166Z,59.55
2024-03-02T00:56:25.662Z,59.53
2024-03-02T00:58:53.961Z,58.80
2024-03-02T01:01:22.448Z,57.35
2024-03-02T01:03:51.384Z,56.40
2024-03-02T01:06:19.754Z,57.92
2024-03-02T01:08:51.707Z,62.80
2024-03-02T01:11:20.048Z,56.65
2024-03-02T01:13:47.954Z,61.55
2024-03-02T01:16:17.055Z,58.85
2024-03-02T01:18:45.218Z,61.65
2024-03-02T01:21:13.172Z,56.83
2024-03-02T01:23:40.938Z,59.20
2024-03-02T01:26:08.681Z,61.30
2024-03-02T01:28:36.336Z,58.42
2024-03-02T01:31:04.175Z,60.15
2024-03-02T01:33:31.965Z,61.97
2024-03-02T01:36:00.234Z,57.28
2024-03-02T01:38:29.907Z,56.40
2024-03-02T01:40:58.523Z,57.45
2024-03-02T01:43:27.330Z,54.08
2024-03-02T01:45:58.159Z,58.28
2024-03-02T01:48:26.140Z,58.78
2024-03-02T01:50:53.940Z,59.67
2024-03-02T01:53:21.787Z,63.90
2024-03-02T01:55:49.510Z,59.75
2024-03-02T01:58:17.510Z,60.88
2024-03-02T02:00:46.825Z,57.00
2024-03-02T02:03:14.991Z,60.85
2024-03-02T02:05:44.701Z,54.42
2024-03-02T02:08:12.521Z,65.47
2024-03-02T02:10:40.261Z,59.63
2024-03-02T02:13:09.745Z,59.17
2024-03-02T02:15:38.066Z,58.75
2024-03-02T02:18:07.586Z,58.58
2024-03-02T02:20:35.951Z,57.03
2024-03-02T02:23:06.888Z,59.90
2024-03-02T02:25:35.304Z,61.55
2024-03-02T02:28:03.450Z,62.03
2024-03-02T02:30:32.771Z,60.75
2024-03-02T02:33:01.196Z,60.83
2024-03-02T02:35:30.864Z,55.75
2024-03-02T02:37:59.939Z,60.75
2024-03-02T02:40:27.845Z,61.28
2024-03-02T02:42:55.780Z,59.15
2024-03-02T02:45:23.783Z,62.50
2024-03-02T02:47:51.574Z,65.25
2024-03-02T02:50:19.625Z,57.42
2024-03-02T02:52:47.349Z,62.80
2024-03-02T02:55:17.211Z,61.20
2024-03-02T02:57:46.981Z,63.08
2024-03-02T03:00:16.812Z,60.83
2024-03-02T03:02:46.365Z,60.33
2024-03-02T03:05:15.696Z,59.70
2024-03-02T03:07:45.772Z,65.80
2024-03-02T03:10:15.203Z,63.85
2024-03-02T03:12:46.839Z,64.65
2024-03-02T03:15:15.563Z,63.05
2024-03-02T03:17:43.916Z,62.60
2024-03-02T03:20:11.959Z,62.75
2024-03-02T03:22:39.897Z,64.13
2024-03-02T03:25:09.930Z,61.63
2024-03-02T03:27:38.517Z,55.28
2024-03-02T03:30:07.958Z,62.25
2024-03-02T03:32:36.500Z,58.80
2024-03-02T03:35:04.978Z,61.63
2024-03-02T03:37:35.129Z,61.17
2024-03-02T03:40:11.775Z,58.55
2024-03-02T03:42:40.903Z,57.95
2024-03-02T03:45:09.567Z,62.30
2024-03-02T03:47:37.638Z,60.47
2024-03-02T03:50:08.435Z,56.97
2024-03-02T03:52:36.569Z,62.83
2024-03-02T03:55:04.569Z,66.78
2024-03-02T03:57:32.848Z,59.75
2024-03-02T04:00:01.722Z,65.82
2024-03-02T04:02:30.118Z,62.40
2024-03-02T04:04:57.872Z,64.10
2024-03-02T04:07:25.639Z,62.65
2024-03-02T04:09:53.780Z,62.90
2024-03-02T04:12:21.689Z,67.90
2024-03-02T04:14:49.688Z,58.92
2024-03-02T04:17:17.474Z,59.08
2024-03-02T04:19:45.232Z,63.30
2024-03-02T04:22:18.715Z,67.47
2024-03-02T04:24:53.785Z,63.28
2024-03-02T04:27:22.936Z,67.78
2024-03-02T04:29:51.358Z,64.25
2024-03-02T04:32:21.010Z,64.43
2024-03-02T04:34:49.128Z,61.80
2024-03-02T04:37:17.004Z,65.00
2024-03-02T04:39:47.237Z,64.68
2024-03-02T04:42:15.122Z,63.13
2024-03-02T04:44:42.975Z,66.32
2024-03-02T04:47:10.765Z,65.65
2024-03-02T04:49:38.827Z,67.28
2024-03-02T04:52:06.683Z,66.72
2024-03-02T04:54:36.286Z,64.32
2024-03-02T04:57:04.096Z,66.18
2024-03-02T04:59:32.304Z,65.45
2024-03-02T05:02:00.192Z,65.38
2024-03-02T05:04:28.490Z,66.53
2024-03-02T05:06:58.688Z,63.10
2024-03-02T05:09:26.534Z,65.47
2024-03-02T05:12:12.869Z,67.53
2024-03-02T05:14:40.696Z,64.40
2024-03-02T05:17:08.548Z,63.30
2024-03-02T05:19:37.000Z,66.20
2024-03-02T05:22:04.733Z,68.57
2024-03-02T05:24:32.670Z,67.32
2024-03-02T05:27:00.896Z,69.25
2024-03-02T05:29:28.601Z,63.55
2024-03-02T05:31:56.328Z,66.90
2024-03-02T05:34:24.309Z,69.43
2024-03-02T05:36:52.072Z,64.90
2024-03-02T05:39:20.103Z,66.47
2024-03-02T05:41:47.872Z,68.90
2024-03-02T05:44:16.854Z,63.95
2024-03-02T05:46:47.236Z,68.63
2024-03-02T05:49:15.066Z,63.65
2024-03-02T05:51:42.992Z,62.95
2024-03-02T05:54:10.934Z,63.47
2024-03-02T05:56:38.747Z,67.22
2024-03-02T05:59:14.120Z,69.35
2024-03-02T06:01:42.467Z,65.22
2024-03-02T06:04:10.657Z,62.15
2024-03-02T06:06:38.717Z,58.47
2024-03-02T06:09:09.178Z,60.90
2024-03-02T06:11:40.153Z,59.42
2024-03-02T06:14:08.474Z,63.15
2024-03-02T06:16:37.651Z,64.18
2024-03-02T06:19:06.049Z,64.50
2024-03-02T06:21:33.794Z,64.28
2024-03-02T06:24:02.501Z,65.13
2024-03-02T06:26:32.004Z,63.08
2024-03-02T06:28:59.841Z,63.78
2024-03-02T06:31:27.573Z,61.38
2024-03-02T06:33:56.948Z,68.40
2024-03-02T06:36:25.192Z,71.82
2024-03-02T06:38:53.405Z,70.80
2024-03-02T06:41:21.136Z,64.53
2024-03-02T06:43:49.024Z,62.97
2024-03-02T06:46:16.795Z,63.00
2024-03-02T06:48:44.856Z,63.67
2024-03-02T06:51:12.558Z,62.78
2024-03-02T06:53:40.263Z,62.83
2024-03-02T06:56:12.613Z,65.25
2024-03-02T06:58:40.475Z,66.35
2024-03-02T07:01:08.372Z,65.50
2024-03-02T07:03:36.219Z,67.88
2024-03-02T07:06:04.378Z,64.65
2024-03-02T07:08:32.247Z,64.03
2024-03-02T07:11:00.041Z,66.80
2024-03-02T07:13:28.141Z,65.68
2024-03-02T07:16:05.077Z,66.95
2024-03-02T07:18:34.726Z,65.50
2024-03-02T07:21:02.721Z,65.82
2024-03-02T07:23:31.561Z,66.93
2024-03-02T07:28:33.640Z,65.97
2024-03-02T07:31:06.073Z,71.05
2024-03-02T07:33:34.282Z,70.70
2024-03-02T07:36:04.994Z,65.65
2024-03-02T07:38:35.577Z,66.93
2024-03-02T07:41:04.056Z,62.17
2024-03-02T07:43:33.110Z,62.45
2024-03-02T07:46:19.396Z,70.40
2024-03-02T07:48:47.445Z,66.82
2024-03-02T07:51:15.635Z,63.75
2024-03-02T07:53:43.841Z,64.65
2024-03-02T07:56:12.341Z,62.53
2024-03-02T07:58:40.251Z,64.18
2024-03-02T08:01:08.437Z,67.57
2024-03-02T08:03:36.320Z,67.03
2024-03-02T08:06:04.259Z,65.97
2024-03-02T08:08:32.254Z,65.78
2024-03-02T08:11:01.736Z,60.40
2024-03-02T08:13:29.832Z,62.92
2024-03-02T08:15:57.610Z,59.72
2024-03-02T08:18:27.044Z,59.65
2024-03-02T08:20:55.354Z,55.40
2024-03-02T08:23:23.221Z,56.40
2024-03-02T08:25:50.964Z,53.70
2024-03-02T08:28:18.858Z,57.30
2024-03-02T08:30:46.733Z,53.92
2024-03-02T08:33:14.562Z,53.97
2024-03-02T08:35:42.545Z,57.75
2024-03-02T08:38:10.541Z,55.88
2024-03-02T08:40:38.331Z,50.97
2024-03-02T08:43:06.420Z,51.80
2024-03-02T08:45:35.396Z,52.33
2024-03-02T08:48:03.271Z,53.97
2024-03-02T08:50:31.078Z,54.25
2024-03-02T08:52:58.778Z,56.30
2024-03-02T08:55:26.788Z,53.70
2024-03-02T08:57:54.810Z,52.70
2024-03-02T09:00:22.830Z,56.55
2024-03-02T09:02:53.325Z,57.88
2024-03-02T09:05:21.186Z,55.67
2024-03-02T09:07:48.943Z,56.33
2024-03-02T09:10:17.192Z,57.15
2024-03-02T09:12:45.334Z,56.65
2024-03-02T09:15:13.241Z,55.97
2024-03-02T09:17:41.717Z,58.03
2024-03-02T09:20:09.678Z,56.80
2024-03-02T09:22:37.472Z,58.55
2024-03-02T09:25:05.703Z,55.83
2024-03-02T09:27:33.562Z,55.80
2024-03-02T09:30:01.780Z,56.42
2024-03-02T09:32:32.217Z,60.78
2024-03-02T09:35:00.719Z,58.60
2024-03-02T09:37:30.080Z,55.22
2024-03-02T09:39:57.850Z,52.85
2024-03-02T09:42:27.240Z,59.72
2024-03-02T09:44:55.380Z,61.05
2024-03-02T09:47:23.330Z,56.75
2024-03-02T09:49:51.295Z,55.40
2024-03-02T09:52:19.085Z,57.42
2024-03-02T09:54:49.646Z,62.30
2024-03-02T09:57:17.834Z,57.25
2024-03-02T09:59:46.760Z,61.13
2024-03-02T10:02:14.660Z,55.78
2024-03-02T10:04:42.605Z,58.05
2024-03-02T10:07:13.431Z,57.17
2024-03-02T10:09:41.843Z,50.05
2024-03-02T10:12:10.707Z,56.25
2024-03-02T10:14:39.096Z,50.67
2024-03-02T10:17:08.172Z,56.83
2024-03-02T10:19:36.522Z,58.83
2024-03-02T10:22:08.402Z,55.05
2024-03-02T10:24:47.459Z,54.22
2024-03-02T10:27:19.555Z,49.70
2024-03-02T10:29:50.384Z,44.72
2024-03-02T10:32:18.466Z,41.63
2024-03-02T10:34:46.931Z,42.83
2024-03-02T10:37:14.715Z,40.60
2024-03-02T10:39:42.778Z,43.70
2024-03-02T10:42:11.093Z,40.33
2024-03-02T10:44:39.046Z,38.30
2024-03-02T10:47:07.452Z,34.88
2024-03-02T10:49:35.361Z,37.88
2024-03-02T10:52:03.738Z,38.45
2024-03-02T10:54:38.103Z,38.55
2024-03-02T10:57:07.122Z,45.95
2024-03-02T10:59:36.191Z,45.70
2024-03-02T11:02:06.103Z,46.17
2024-03-02T11:04:36.611Z,44.80
2024-03-02T11:07:05.386Z,40.50
2024-03-02T11:09:35.641Z,42.15
2024-03-02T11:12:19.953Z,40.72
2024-03-02T11:14:47.824Z,40.70
2024-03-02T11:17:19.246Z,41.88
2024-03-02T11:19:47.110Z,41.53
2024-03-02T11:22:34.200Z,38.58
2024-03-02T11:25:02.036Z,42.70
2024-03-02T11:27:50.513Z,41.70
2024-03-02T11:30:39.119Z,41.13
2024-03-02T11:33:12.160Z,42.50
2024-03-02T11:35:46.925Z,41.78
2024-03-02T11:38:14.683Z,41.83
2024-03-02T11:40:43.149Z,39.60
2024-03-02T11:43:12.352Z,44.08
2024-03-02T11:45:43.580Z,40.05
2024-03-02T11:48:14.358Z,37.67
2024-03-02T11:50:43.233Z,43.92
2024-03-02T11:53:11.993Z,30.08
2024-03-02T11:55:51.075Z,37.92
2024-03-02T11:58:22.027Z,35.15
2024-03-02T12:00:53.131Z,35.28
2024-03-02T12:03:22.617Z,37.08
2024-03-02T12:05:51.791Z,36.97
2024-03-02T12:08:19.664Z,34.67
2024-03-02T12:11:04.611Z,37.05
2024-03-02T12:13:33.251Z,36.55
2024-03-02T12:16:01.209Z,36.28
2024-03-02T12:18:29.474Z,35.40
2024-03-02T12:21:00.493Z,39.47
2024-03-02T12:23:28.535Z,37.88
2024-03-02T12:25:56.578Z,32.67
2024-03-02T12:28:24.492Z,34.13
2024-03-02T12:30:53.068Z,34.05
2024-03-02T12:33:21.950Z,34.78
2024-03-02T12:35:51.158Z,32.72
2024-03-02T12:38:19.043Z,35.53
2024-03-02T12:40:46.725Z,34.10
2024-03-02T12:43:14.479Z,31.33
2024-03-02T12:45:43.108Z,27.70
2024-03-02T12:48:11.209Z,28.90
2024-03-02T12:50:39.116Z,23.10
2024-03-02T12:53:07.427Z,24.35
2024-03-02T12:55:35.279Z,24.27
2024-03-02T12:58:04.490Z,24.60
2024-03-02T13:00:36.532Z,24.08
2024-03-02T13:03:04.852Z,24.80
2024-03-02T13:05:33.365Z,24.92
2024-03-02T13:08:01.276Z,28.08
2024-03-02T13:10:29.627Z,28.52
2024-03-02T13:12:58.410Z,22.50
2024-03-02T13:15:28.736Z,26.20
2024-03-02T13:18:01.757Z,22.73
2024-03-02T13:22:57.121Z,20.55
2024-03-02T13:25:24.912Z,24.98
2024-03-02T13:27:53.445Z,25.15
2024-03-02T13:30:21.425Z,22.83
2024-03-02T13:32:49.269Z,22.13
2024-03-02T13:35:17.715Z,22.98
2024-03-02T13:37:45.511Z,25.63
2024-03-02T13:40:19.076Z,22.45
2024-03-02T13:42:48.556Z,26.42
2024-03-02T13:45:17.037Z,23.92
2024-03-02T13:47:45.470Z,21.88
2024-03-02T13:50:13.325Z,23.42
2024-03-02T13:52:41.074Z,23.75
2024-03-02T13:55:09.561Z,22.42
2024-03-02T13:57:37.390Z,27.13
2024-03-02T14:00:11.711Z,25.17
2024-03-02T14:02:39.829Z,24.77
2024-03-02T14:05:08.972Z,25.17
2024-03-02T14:07:36.865Z,25.00
2024-03-02T14:10:04.794Z,26.95
2024-03-02T14:12:32.900Z,24.48
2024-03-02T14:15:03.516Z,24.30
2024-03-02T14:17:33.984Z,22.33
2024-03-02T14:20:01.792Z,23.88
2024-03-02T14:22:30.171Z,28.77
2024-03-02T14:24:58.473Z,27.42
2024-03-02T14:27:38.053Z,26.33
2024-03-02T14:30:15.854Z,28.27
2024-03-02T14:32:44.115Z,28.50
2024-03-02T14:35:12.073Z,28.85
2024-03-02T14:37:40.316Z,26.88
2024-03-02T14:40:10.943Z,24.98
2024-03-02T14:42:38.804Z,28.52
2024-03-02T14:45:06.963Z,26.25
2024-03-02T14:47:36.680Z,25.73
2024-03-02T14:50:07.584Z,29.15
2024-03-02T14:52:35.471Z,25.88
2024-03-02T14:55:05.549Z,23.52
2024-03-02T14:57:33.653Z,28.38
2024-03-02T15:00:01.374Z,26.67
2024-03-02T15:02:29.970Z,26.10
2024-03-02T15:04:58.160Z,25.63
2024-03-02T15:07:25.924Z,25.67
2024-03-02T15:09:53.924Z,26.98
2024-03-02T15:12:21.785Z,24.77
2024-03-02T15:14:49.616Z,29.30
2024-03-02T15:17:18.445Z,31.83
2024-03-02T15:19:46.694Z,29.45
2024-03-02T15:22:14.776Z,30.38
2024-03-02T15:24:43.273Z,30.95
2024-03-02T15:27:11.398Z,30.42
2024-03-02T15:29:39.725Z,33.15
2024-03-02T15:32:08.402Z,33.63
2024-03-02T15:34:36.648Z,34.95
2024-03-02T15:37:05.473Z,29.27
2024-03-02T15:39:33.648Z,35.78
2024-03-02T15:42:01.507Z,32.45
2024-03-02T15:44:29.407Z,33.10
2024-03-02T15:46:57.884Z,32.78
2024-03-02T15:49:25.694Z,34.22
2024-03-02T15:51:53.661Z,34.25
2024-03-02T15:54:21.491Z,30.15
2024-03-02T15:56:49.337Z,34.50
2024-03-02T15:59:17.662Z,34.83
2024-03-02T16:01:47.426Z,37.03
2024-03-02T16:04:15.341Z,36.25
2024-03-02T16:06:43.249Z,39.70
2024-03-02T16:09:11.536Z,42.10
2024-03-02T16:11:39.561Z,43.97
2024-03-02T16:14:07.968Z,41.63
2024-03-02T16:16:36.527Z,40.72
2024-03-02T16:19:11.336Z,40.85
2024-03-02T16:21:44.717Z,37.83
2024-03-02T16:24:12.641Z,40.35
2024-03-02T16:26:40.583Z,50.92
2024-03-02T16:29:08.282Z,52.25
2024-03-02T16:31:36.413Z,48.00
2024-03-02T16:34:05.098Z,53.13
2024-03-02T16:36:36.112Z,52.55
2024-03-02T16:39:22.675Z,57.30
2024-03-02T16:41:50.464Z,50.35
2024-03-02T16:44:18.518Z,48.50
2024-03-02T16:46:47.682Z,50.55
2024-03-02T16:49:15.490Z,47.05
2024-03-02T16:51:43.621Z,46.67
2024-03-02T16:54:11.466Z,48.45
2024-03-02T16:56:45.997Z,44.40
2024-03-02T16:59:13.918Z,48.08
2024-03-02T17:01:41.926Z,41.45
2024-03-02T17:04:11.265Z,50.38
2024-03-02T17:06:39.121Z,43.90
2024-03-02T17:09:09.494Z,40.97
2024-03-02T17:11:37.488Z,44.38
2024-03-02T17:14:05.941Z,47.78
2024-03-02T17:16:33.901Z,44.30
2024-03-02T17:19:04.360Z,41.63
2024-03-02T17:21:33.861Z,38.60
2024-03-02T17:24:03.881Z,43.38
2024-03-02T17:26:32.358Z,43.20
2024-03-02T17:29:00.169Z,42.83
2024-03-02T17:31:28.070Z,46.40
2024-03-02T17:33:56.213Z,43.58
2024-03-02T17:36:23.966Z,45.78
2024-03-02T17:38:51.965Z,41.97
2024-03-02T17:41:20.028Z,46.97
2024-03-02T17:43:47.847Z,45.25
2024-03-02T17:46:15.681Z,41.33
2024-03-02T17:48:43.621Z,35.80
2024-03-02T17:51:11.402Z,39.17
2024-03-02T17:53:39.378Z,34.92
2024-03-02T17:56:07.795Z,39.15
2024-03-02T17:58:35.584Z,35.80
2024-03-02T18:01:04.721Z,34.35
2024-03-02T18:03:32.738Z,44.58
2024-03-02T18:06:01.182Z,38.67
2024-03-02T18:08:29.037Z,42.10
2024-03-02T18:10:57.606Z,40.45
2024-03-02T18:13:25.440Z,35.67
2024-03-02T18:15:54.781Z,38.03
2024-03-02T18:18:22.849Z,34.78
2024-03-02T18:20:51.045Z,40.35
2024-03-02T18:23:18.772Z,35.72
2024-03-02T18:25:49.541Z,39.92
2024-03-02T18:28:17.499Z,35.60
2024-03-02T18:30:45.472Z,33.67
2024-03-02T18:33:32.205Z,38.80
2024-03-02T18:36:00.283Z,33.63
2024-03-02T18:38:28.198Z,35.83
2024-03-02T18:40:55.996Z,34.20
2024-03-02T18:43:23.725Z,34.72
2024-03-02T18:45:52.222Z,38.80
2024-03-02T18:48:20.122Z,35.53
2024-03-02T18:50:48.460Z,36.35
2024-03-02T18:53:16.232Z,37.70
2024-03-02T18:55:44.109Z,31.83
2024-03-02T18:58:12.003Z,36.15
2024-03-02T19:00:39.990Z,36.35
2024-03-02T19:03:10.891Z,37.78
2024-03-02T19:05:39.273Z,41.50
2024-03-02T19:08:07.398Z,35.33
2024-03-02T19:10:35.094Z,38.85
2024-03-02T19:13:02.990Z,35.72
2024-03-02T19:15:31.322Z,36.42
2024-03-02T19:17:59.551Z,40.17
2024-03-02T19:20:27.376Z,37.53
2024-03-02T19:22:55.582Z,39.20
2024-03-02T19:25:23.559Z,44.20
2024-03-02T19:27:51.289Z,37.97
2024-03-02T19:30:19.187Z,40.80
2024-03-02T19:32:47.449Z,46.85
2024-03-02T19:35:15.784Z,44.00
2024-03-02T19:37:43.516Z,43.72
2024-03-02T19:40:11.891Z,45.97
2024-03-02T19:42:39.811Z,42.78
2024-03-02T19:45:07.858Z,43.58
2024-03-02T19:47:36.374Z,41.20
2024-03-02T19:50:05.855Z,42.05
2024-03-02T19:52:33.847Z,40.97
2024-03-02T19:55:03.009Z,40.92
2024-03-02T19:57:32.073Z,42.35
2024-03-02T19:59:59.790Z,42.92
2024-03-02T20:02:28.399Z,41.03
2024-03-02T20:04:56.333Z,44.10
2024-03-02T20:07:24.456Z,38.40
2024-03-02T20:09:52.418Z,40.40
2024-03-02T20:12:20.222Z,40.05
2024-03-02T20:14:48.794Z,41.90
2024-03-02T20:17:17.072Z,39.67
2024-03-02T20:19:45.999Z,41.53
2024-03-02T20:22:14.305Z,45.20
2024-03-02T20:24:42.533Z,37.75
2024-03-02T20:27:10.867Z,37.85
2024-03-02T20:29:38.652Z,40.30
2024-03-02T20:32:07.080Z,36.90
2024-03-02T20:34:34.935Z,36.72
2024-03-02T20:37:02.771Z,35.42
2024-03-02T20:39:31.677Z,37.20
2024-03-02T20:41:59.581Z,40.75
2024-03-02T20:44:27.513Z,40.92
2024-03-02T20:46:55.596Z,44.28
2024-03-02T20:49:24.986Z,38.45
2024-03-02T20:51:52.826Z,40.80
2024-03-02T20:54:20.572Z,37.88
2024-03-02T20:56:48.671Z,39.20
2024-03-02T20:59:16.569Z,45.78
2024-03-02T21:01:45.651Z,40.30
2024-03-02T21:04:15.979Z,39.90
2024-03-02T21:06:45.125Z,36.70
2024-03-02T21:09:13.508Z,35.95
2024-03-02T21:11:42.113Z,34.55
2024-03-02T21:14:09.931Z,34.10
2024-03-02T21:16:38.490Z,38.97
2024-03-02T21:19:06.431Z,33.35
2024-03-02T21:21:34.357Z,35.75
2024-03-02T21:24:02.174Z,35.33
2024-03-02T21:26:29.923Z,32.58
2024-03-02T21:28:57.616Z,35.15
2024-03-02T21:31:25.422Z,33.50
2024-03-02T21:33:53.196Z,31.33
2024-03-02T21:36:21.125Z,30.67
2024-03-02T21:38:48.956Z,33.03
2024-03-02T21:41:17.765Z,31.55
2024-03-02T21:43:45.474Z,31.73
2024-03-02T21:46:14.019Z,33.13
2024-03-02T21:48:41.998Z,33.13
2024-03-02T21:51:09.929Z,32.63
2024-03-02T21:53:38.028Z,28.27
2024-03-02T21:56:06.892Z,30.20
2024-03-02T21:58:34.559Z,30.38
2024-03-02T22:01:02.448Z,33.95
2024-03-02T22:03:30.265Z,30.67
2024-03-02T22:05:58.688Z,30.23
2024-03-02T22:08:28.594Z,27.85
2024-03-02T22:10:56.982Z,30.40
2024-03-02T22:13:24.804Z,30.58
2024-03-02T22:15:52.766Z,29.00
2024-03-02T22:18:20.480Z,26.35
2024-03-02T22:20:48.187Z,29.35
2024-03-02T22:23:18.956Z,27.48
2024-03-02T22:25:47.225Z,29.25
2024-03-02T22:28:15.024Z,32.10
2024-03-02T22:30:43.348Z,30.13
2024-03-02T22:33:11.191Z,27.58
2024-03-02T22:35:39.337Z,28.75
2024-03-02T22:38:07.132Z,28.45
2024-03-02T22:40:34.907Z,29.92
2024-03-02T22:43:03.030Z,28.35
2024-03-02T22:45:30.755Z,25.98
2024-03-02T22:48:00.771Z,30.95
2024-03-02T22:50:28.983Z,28.30
2024-03-02T22:52:56.647Z,29.30
2024-03-02T22:55:24.424Z,26.80
2024-03-02T22:57:52.260Z,25.55
2024-03-02T23:00:35.045Z,27.92
2024-03-02T23:03:04.526Z,26.13
2024-03-02T23:05:32.294Z,24.23
2024-03-02T23:08:00.332Z,28.40
2024-03-02T23:10:28.165Z,32.53
2024-03-02T23:12:55.997Z,28.08
2024-03-02T23:15:30.076Z,23.55
2024-03-02T23:17:58.329Z,24.40
2024-03-02T23:20:26.932Z,26.45
2024-03-02T23:22:55.572Z,23.08
2024-03-02T23:25:23.732Z,23.98
2024-03-02T23:27:51.778Z,23.10
2024-03-02T23:30:19.597Z,27.23
2024-03-02T23:32:47.545Z,23.30
2024-03-02T23:35:15.402Z,22.45
2024-03-02T23:37:43.179Z,30.05
2024-03-02T23:40:31.566Z,22.88
2024-03-02T23:42:59.394Z,27.65
2024-03-02T23:45:27.400Z,22.73
2024-03-02T23:47:55.115Z,23.73
2024-03-02T23:50:23.709Z,24.33
2024-03-02T23:52:51.515Z,26.67
2024-03-02T23:55:19.591Z,24.80
2024-03-02T23:57:47.648Z,24.50
